Terminal Aerodrome Forecast
Issued by NWS

Home | Current Version | Previous Version | Text Only | Print | Product List | Glossary On
Versions: 1 2 3 4 5 6 7 8 9 10 11 12 13 14 15 16 17 18 19 20 21
000
FTUS43 KAPX 081738 AAB
TAFMBL
TAF AMD
KMBL 081738Z 0818/0918 30013G24KT 6SM -SHSN BLSN BR OVC015
      TEMPO 0818/0822 2SM -SHSN
     FM090100 32012G22KT 6SM -SHSN BLSN BR OVC040
     FM090400 32011G20KT P6SM -SHSN OVC060
     FM091200 32010G19KT P6SM -SHSN OVC030=

USA.gov is the U.S. government's official web portal to all federal, state and local government web resources and services.